Time;durP1;ratioP1;P1;durP2;ratioP2;P2;SDS_P1;SDS_P2;PMS_P1;PMS_P2;Temp;Humidity;BMP_temperature;BMP_pressure;BME280_temperature;BME280_humidity;BME280_pressure;Samples;Min_cycle;Max_cycle;Signal;HPM_P1;HPM_P2
2021/06/23 00:02:03;;;;;;;0.40;0.20;;;;;;;17.75;100.00;100296.78;5012340;28;20449;-50
2021/06/23 00:04:29;;;;;;;0.40;0.20;;;;;;;17.72;100.00;100294.28;5012585;28;20449;-50
2021/06/23 00:06:56;;;;;;;0.40;0.20;;;;;;;17.72;100.00;100283.53;5004194;28;20473;-49
2021/06/23 00:09:23;;;;;;;0.40;0.30;;;;;;;17.65;100.00;100287.47;5012531;28;20488;-50
2021/06/23 00:11:52;;;;;;;0.40;0.20;;;;;;;17.68;100.00;100295.38;5012214;28;20856;-50
2021/06/23 00:14:20;;;;;;;0.40;0.20;;;;;;;17.56;100.00;100296.97;5012628;28;20954;-50
2021/06/23 00:16:46;;;;;;;0.40;0.20;;;;;;;17.73;100.00;100304.94;5008690;28;20436;-50
2021/06/23 00:19:13;;;;;;;0.40;0.20;;;;;;;17.87;100.00;100301.47;5004495;28;20488;-50
2021/06/23 00:21:40;;;;;;;0.40;0.20;;;;;;;17.88;100.00;100299.63;5007754;28;20555;-49
2021/06/23 00:24:07;;;;;;;0.40;0.20;;;;;;;17.96;100.00;100302.75;5012716;28;20452;-50
2021/06/23 00:26:35;;;;;;;0.40;0.20;;;;;;;17.92;100.00;100298.50;5011167;28;20871;-50
2021/06/23 00:29:03;;;;;;;0.40;0.20;;;;;;;17.62;100.00;100290.34;5012432;28;20512;-49
2021/06/23 00:31:31;;;;;;;0.40;0.20;;;;;;;17.54;100.00;100292.59;5008141;28;20544;-50
2021/06/23 00:34:01;;;;;;;0.40;0.20;;;;;;;17.53;100.00;100290.88;5001687;28;20481;-50
2021/06/23 00:36:28;;;;;;;0.40;0.20;;;;;;;17.55;100.00;100291.69;5012080;28;20460;-49
2021/06/23 00:38:54;;;;;;;0.40;0.20;;;;;;;17.57;100.00;100293.31;5012248;28;20872;-49
2021/06/23 00:41:21;;;;;;;0.40;0.20;;;;;;;17.79;100.00;100290.28;4999075;28;20515;-49
2021/06/23 00:43:48;;;;;;;0.40;0.20;;;;;;;17.64;100.00;100302.75;5012376;28;20946;-50
2021/06/23 00:46:16;;;;;;;0.40;0.20;;;;;;;17.62;100.00;100307.34;5000970;28;20468;-49
2021/06/23 00:48:57;;;;;;;0.40;0.30;;;;;;;17.57;100.00;100296.00;5012255;28;20444;-50
2021/06/23 00:51:24;;;;;;;1.13;1.13;;;;;;;17.46;100.00;100293.94;5011900;28;20500;-49
2021/06/23 00:53:51;;;;;;;0.40;0.20;;;;;;;17.51;100.00;100295.47;5012402;28;20906;-49
2021/06/23 00:56:18;;;;;;;0.40;0.20;;;;;;;17.51;100.00;100292.78;5012170;28;20458;-50
2021/06/23 00:58:48;;;;;;;0.40;0.20;;;;;;;17.39;100.00;100289.84;5011003;28;20502;-49
2021/06/23 01:01:16;;;;;;;0.40;0.20;;;;;;;17.26;100.00;100288.78;4996660;28;20547;-49
2021/06/23 01:03:44;;;;;;;0.40;0.30;;;;;;;17.35;100.00;100287.44;5006491;28;20460;-50
2021/06/23 01:06:11;;;;;;;0.40;0.20;;;;;;;17.34;100.00;100286.56;5012093;28;20452;-50
2021/06/23 01:08:38;;;;;;;0.63;0.63;;;;;;;17.41;100.00;100292.47;5011963;28;20451;-50
2021/06/23 01:11:06;;;;;;;0.40;0.20;;;;;;;17.41;100.00;100305.91;5011942;28;20535;-50
2021/06/23 01:13:37;;;;;;;0.70;0.70;;;;;;;17.32;100.00;100303.72;5011828;28;20801;-50
2021/06/23 01:16:08;;;;;;;0.40;0.20;;;;;;;17.29;100.00;100307.47;5015920;28;20473;-50
2021/06/23 01:18:36;;;;;;;0.40;0.20;;;;;;;17.43;100.00;100314.75;5015406;28;20475;-49
2021/06/23 01:21:05;;;;;;;0.40;0.20;;;;;;;17.52;100.00;100316.88;5011534;28;20511;-50
2021/06/23 01:23:33;;;;;;;0.40;0.20;;;;;;;17.53;100.00;100328.50;5015452;28;20511;-50
2021/06/23 01:25:59;;;;;;;0.40;0.20;;;;;;;17.42;100.00;100327.31;5015468;28;20498;-50
2021/06/23 01:28:26;;;;;;;0.40;0.20;;;;;;;17.42;100.00;100326.44;5015529;28;20502;-50
2021/06/23 01:30:56;;;;;;;0.80;0.80;;;;;;;17.49;100.00;100333.19;5014003;28;21014;-51
2021/06/23 01:33:24;;;;;;;0.40;0.20;;;;;;;17.46;100.00;100328.00;5015086;28;20452;-49
2021/06/23 01:35:52;;;;;;;4.00;2.53;;;;;;;17.48;100.00;100329.66;5015282;28;20423;-50
2021/06/23 01:38:19;;;;;;;0.40;0.20;;;;;;;17.52;100.00;100335.69;5015203;28;20467;-50
2021/06/23 01:40:46;;;;;;;0.40;0.20;;;;;;;17.62;100.00;100338.75;5001437;28;20508;-50
2021/06/23 01:43:13;;;;;;;0.40;0.30;;;;;;;17.61;100.00;100331.63;5014014;28;20423;-50
2021/06/23 01:45:40;;;;;;;0.40;0.20;;;;;;;17.64;100.00;100334.16;5014995;28;20452;-50
2021/06/23 01:48:07;;;;;;;0.40;0.20;;;;;;;17.66;100.00;100325.03;4996545;28;20443;-51
2021/06/23 01:50:34;;;;;;;0.40;0.20;;;;;;;17.64;100.00;100331.47;4988109;28;20548;-50
2021/06/23 01:53:00;;;;;;;0.40;0.20;;;;;;;17.66;100.00;100342.97;5014186;28;20902;-50
2021/06/23 01:55:27;;;;;;;0.53;0.53;;;;;;;17.70;100.00;100341.91;5015382;28;20456;-50
2021/06/23 01:58:04;;;;;;;0.40;0.20;;;;;;;17.73;100.00;100342.59;5015834;28;20453;-50
2021/06/23 02:00:39;;;;;;;0.40;0.20;;;;;;;17.74;100.00;100340.78;5014861;28;20881;-50
2021/06/23 02:03:15;;;;;;;0.40;0.20;;;;;;;17.71;100.00;100344.50;5009360;28;20511;-49
2021/06/23 02:05:50;;;;;;;0.40;0.20;;;;;;;17.72;100.00;100343.56;5010281;28;20524;-50
2021/06/23 02:08:23;;;;;;;0.40;0.20;;;;;;;17.62;100.00;100345.00;4997419;28;20457;-50
2021/06/23 02:11:12;;;;;;;0.40;0.20;;;;;;;17.45;100.00;100348.63;5013611;28;20480;-51
2021/06/23 02:14:10;;;;;;;0.40;0.20;;;;;;;17.34;100.00;100345.66;5014617;28;20452;-50
2021/06/23 02:16:38;;;;;;;0.50;0.40;;;;;;;17.41;100.00;100344.41;5014079;28;20460;-50
2021/06/23 02:19:06;;;;;;;0.40;0.20;;;;;;;17.35;100.00;100336.66;4978209;28;20959;-50
2021/06/23 02:21:39;;;;;;;1.33;0.93;;;;;;;17.20;100.00;100332.13;4997492;28;20810;-50
2021/06/23 02:24:07;;;;;;;0.40;0.30;;;;;;;17.33;100.00;100335.88;5008393;28;20465;-50
2021/06/23 02:26:35;;;;;;;0.40;0.20;;;;;;;17.22;100.00;100329.38;5012947;28;20423;-50
2021/06/23 02:29:03;;;;;;;0.40;0.20;;;;;;;17.35;100.00;100336.66;5014582;28;20960;-49
2021/06/23 02:31:31;;;;;;;0.40;0.20;;;;;;;17.39;100.00;100342.72;5013932;28;20524;-49
2021/06/23 02:33:58;;;;;;;0.40;0.20;;;;;;;17.45;100.00;100340.56;5014220;28;20480;-50
2021/06/23 02:36:26;;;;;;;0.40;0.20;;;;;;;17.30;100.00;100333.38;5014141;28;20484;-50
2021/06/23 02:38:53;;;;;;;0.40;0.20;;;;;;;17.24;100.00;100333.69;5014164;28;20982;-50
2021/06/23 02:41:20;;;;;;;0.40;0.20;;;;;;;17.12;100.00;100334.38;5000857;28;20526;-49
2021/06/23 02:43:47;;;;;;;0.40;0.20;;;;;;;17.16;100.00;100325.22;5008056;28;20436;-50
2021/06/23 02:46:14;;;;;;;0.40;0.20;;;;;;;17.32;100.00;100318.03;5009317;28;20457;-50
2021/06/23 02:48:41;;;;;;;0.40;0.20;;;;;;;17.35;100.00;100322.34;5013796;28;20455;-50
2021/06/23 02:51:20;;;;;;;0.40;0.20;;;;;;;17.28;100.00;100319.16;5013349;28;20550;-50
2021/06/23 02:53:49;;;;;;;0.40;0.20;;;;;;;17.38;100.00;100317.66;5014183;28;20437;-50
2021/06/23 02:56:17;;;;;;;0.40;0.30;;;;;;;17.36;100.00;100316.03;5014202;28;20452;-49
2021/06/23 02:58:44;;;;;;;0.40;0.30;;;;;;;17.24;100.00;100322.94;5006142;28;20461;-49
2021/06/23 03:01:12;;;;;;;0.40;0.30;;;;;;;17.23;100.00;100323.03;4999889;28;20472;-50
2021/06/23 03:03:40;;;;;;;0.40;0.20;;;;;;;17.33;100.00;100318.88;5013495;28;20452;-50
2021/06/23 03:06:08;;;;;;;0.43;0.27;;;;;;;17.27;100.00;100324.59;5010969;28;20942;-50
2021/06/23 03:08:36;;;;;;;0.40;0.20;;;;;;;17.19;100.00;100330.41;5013757;28;20427;-51
2021/06/23 03:11:04;;;;;;;0.40;0.20;;;;;;;17.17;100.00;100321.56;4988325;28;20939;-50
2021/06/23 03:13:31;;;;;;;0.40;0.30;;;;;;;17.10;100.00;100336.28;5013222;28;20925;-50
2021/06/23 03:15:59;;;;;;;1.53;0.70;;;;;;;17.02;100.00;100335.84;5013362;28;20942;-50
2021/06/23 03:18:28;;;;;;;0.40;0.20;;;;;;;16.95;100.00;100339.78;5012005;28;20452;-50
2021/06/23 03:20:55;;;;;;;0.40;0.20;;;;;;;17.06;100.00;100343.63;5012357;28;20472;-49
2021/06/23 03:23:22;;;;;;;0.40;0.20;;;;;;;17.04;100.00;100342.88;5013302;28;20420;-50
2021/06/23 03:25:48;;;;;;;0.40;0.20;;;;;;;16.76;100.00;100345.28;5013468;28;20754;-49
2021/06/23 03:28:15;;;;;;;0.40;0.20;;;;;;;16.90;100.00;100350.78;5013149;28;20464;-50
2021/06/23 03:30:42;;;;;;;0.40;0.20;;;;;;;16.88;100.00;100342.81;5013251;28;20611;-50
2021/06/23 03:33:08;;;;;;;0.40;0.20;;;;;;;16.67;100.00;100338.59;5012726;28;20520;-50
2021/06/23 03:35:35;;;;;;;0.40;0.20;;;;;;;16.58;100.00;100347.97;5013353;28;20481;-49
2021/06/23 03:38:02;;;;;;;0.40;0.20;;;;;;;16.64;100.00;100341.41;5012546;28;20934;-50
2021/06/23 03:40:30;;;;;;;0.40;0.30;;;;;;;16.85;100.00;100353.72;5003825;28;20524;-50
2021/06/23 03:42:57;;;;;;;0.40;0.20;;;;;;;16.88;100.00;100340.13;5009031;28;20486;-49
2021/06/23 03:45:41;;;;;;;0.40;0.20;;;;;;;16.88;100.00;100350.88;5012566;28;20479;-50
2021/06/23 03:48:08;;;;;;;0.40;0.20;;;;;;;16.92;100.00;100354.25;5011593;28;20448;-49
2021/06/23 03:50:35;;;;;;;0.60;0.60;;;;;;;17.10;100.00;100363.13;5012909;28;20538;-50
2021/06/23 03:53:03;;;;;;;0.40;0.27;;;;;;;17.17;100.00;100356.50;5012680;28;20527;-50
2021/06/23 03:55:31;;;;;;;0.40;0.20;;;;;;;17.19;100.00;100376.06;5012877;28;20544;-49
2021/06/23 03:57:58;;;;;;;0.40;0.20;;;;;;;17.19;100.00;100370.69;5012590;28;20427;-50
2021/06/23 04:00:27;;;;;;;0.40;0.20;;;;;;;16.95;100.00;100372.03;5012914;28;20476;-49
2021/06/23 04:02:55;;;;;;;1.27;1.17;;;;;;;16.80;100.00;100371.03;5012823;28;20583;-49
2021/06/23 04:05:22;;;;;;;0.40;0.20;;;;;;;16.68;100.00;100374.34;5011235;28;20503;-50
2021/06/23 04:07:49;;;;;;;0.57;0.57;;;;;;;16.88;100.00;100371.50;5012778;28;20983;-50
2021/06/23 04:10:17;;;;;;;1.23;1.23;;;;;;;16.83;100.00;100373.53;5012374;28;20503;-50
2021/06/23 04:12:44;;;;;;;0.40;0.20;;;;;;;16.82;100.00;100383.41;5012485;28;20494;-49
2021/06/23 04:15:14;;;;;;;0.60;0.60;;;;;;;16.91;100.00;100379.38;5012534;28;20448;-50
2021/06/23 04:17:41;;;;;;;0.40;0.20;;;;;;;17.20;100.00;100379.63;5012473;28;20457;-50
2021/06/23 04:20:09;;;;;;;0.40;0.20;;;;;;;17.40;100.00;100391.00;5012245;28;20476;-49
2021/06/23 04:22:36;;;;;;;0.40;0.30;;;;;;;17.54;100.00;100384.00;5012562;28;20511;-49
2021/06/23 04:25:06;;;;;;;0.40;0.20;;;;;;;17.67;100.00;100369.78;5012205;28;20526;-50
2021/06/23 04:27:32;;;;;;;0.50;0.30;;;;;;;17.63;100.00;100378.13;5012297;28;20475;-50
2021/06/23 04:29:59;;;;;;;0.40;0.20;;;;;;;17.75;100.00;100364.00;5012466;28;20495;-50
2021/06/23 04:32:26;;;;;;;8.13;2.30;;;;;;;17.86;100.00;100358.91;5012188;28;20520;-50
2021/06/23 04:34:52;;;;;;;0.40;0.20;;;;;;;17.86;100.00;100371.47;5012072;28;20457;-50
2021/06/23 04:37:19;;;;;;;0.40;0.30;;;;;;;17.85;100.00;100375.13;5012279;28;20431;-50
2021/06/23 04:39:49;;;;;;;0.40;0.20;;;;;;;17.75;100.00;100374.78;5008272;28;20887;-51
2021/06/23 04:42:16;;;;;;;0.50;0.40;;;;;;;17.83;100.00;100374.34;5003129;28;20507;-51
2021/06/23 04:44:42;;;;;;;0.40;0.20;;;;;;;17.74;100.00;100375.72;5012344;28;20527;-51
2021/06/23 04:47:09;;;;;;;0.40;0.20;;;;;;;17.71;100.00;100376.78;5010635;28;20460;-51
2021/06/23 04:49:36;;;;;;;0.40;0.20;;;;;;;17.73;100.00;100369.47;5000161;28;20487;-52
2021/06/23 04:52:03;;;;;;;0.40;0.20;;;;;;;17.75;100.00;100383.69;5015959;28;20515;-51
2021/06/23 04:54:31;;;;;;;0.50;0.50;;;;;;;17.77;100.00;100376.41;5014617;28;20464;-51
2021/06/23 04:56:57;;;;;;;0.40;0.20;;;;;;;17.81;100.00;100387.00;5016165;28;20452;-51
2021/06/23 04:59:24;;;;;;;0.50;0.50;;;;;;;17.88;100.00;100388.38;5005365;28;20522;-51
2021/06/23 05:01:50;;;;;;;0.40;0.20;;;;;;;17.74;100.00;100386.47;5008087;28;20958;-51
2021/06/23 05:04:17;;;;;;;0.40;0.20;;;;;;;17.85;100.00;100380.50;5015545;28;20444;-52
2021/06/23 05:06:44;;;;;;;1.50;1.50;;;;;;;17.89;100.00;100382.06;5015965;28;20448;-52
2021/06/23 05:09:10;;;;;;;1.23;1.13;;;;;;;17.90;100.00;100376.59;5008175;28;20483;-51
2021/06/23 05:11:37;;;;;;;0.40;0.20;;;;;;;17.93;100.00;100376.41;5015767;28;20501;-51
2021/06/23 05:14:06;;;;;;;0.50;0.30;;;;;;;18.04;100.00;100368.56;5015293;28;20999;-51
2021/06/23 05:16:35;;;;;;;0.40;0.30;;;;;;;17.94;100.00;100371.88;5015562;28;20879;-52
2021/06/23 05:19:03;;;;;;;0.40;0.20;;;;;;;18.01;100.00;100376.84;5015423;28;20485;-52
2021/06/23 05:21:34;;;;;;;0.50;0.50;;;;;;;18.07;100.00;100383.66;5015333;28;20511;-52
2021/06/23 05:24:02;;;;;;;0.40;0.27;;;;;;;17.99;100.00;100376.06;5008456;28;20491;-52
2021/06/23 05:26:29;;;;;;;0.40;0.20;;;;;;;18.15;100.00;100376.03;5009453;28;20732;-51
2021/06/23 05:28:56;;;;;;;0.40;0.20;;;;;;;18.37;100.00;100370.25;5015313;28;20427;-51
2021/06/23 05:31:23;;;;;;;0.50;0.30;;;;;;;18.38;100.00;100377.38;5015126;28;20439;-51
2021/06/23 05:33:50;;;;;;;0.40;0.20;;;;;;;18.54;100.00;100385.41;5015051;28;20912;-52
2021/06/23 05:36:18;;;;;;;0.40;0.20;;;;;;;18.46;100.00;100379.59;5015042;28;20423;-52
2021/06/23 05:38:45;;;;;;;0.40;0.30;;;;;;;18.82;100.00;100395.41;5015525;28;20476;-52
2021/06/23 05:41:12;;;;;;;0.40;0.20;;;;;;;19.02;100.00;100402.25;4997077;28;20477;-52
2021/06/23 05:43:39;;;;;;;0.40;0.20;;;;;;;19.52;100.00;100397.25;5014025;28;20451;-52
2021/06/23 05:46:05;;;;;;;0.40;0.20;;;;;;;19.55;100.00;100396.22;5013324;28;20465;-52
2021/06/23 05:48:32;;;;;;;0.40;0.20;;;;;;;19.44;100.00;100404.09;5006521;28;20467;-52
2021/06/23 05:50:59;;;;;;;0.40;0.20;;;;;;;19.56;100.00;100419.53;5007635;28;20529;-51
2021/06/23 05:53:26;;;;;;;0.40;0.33;;;;;;;19.45;100.00;100420.16;5004357;28;20513;-51
2021/06/23 05:55:55;;;;;;;0.40;0.30;;;;;;;19.96;100.00;100417.81;5014891;28;20427;-52
2021/06/23 05:58:23;;;;;;;0.40;0.20;;;;;;;19.95;100.00;100417.91;5010692;28;20527;-51
2021/06/23 06:00:49;;;;;;;0.40;0.20;;;;;;;20.00;100.00;100418.47;5010972;28;20472;-52
2021/06/23 06:03:16;;;;;;;2.73;2.53;;;;;;;20.08;98.58;100413.44;5014668;28;20806;-52
2021/06/23 06:05:43;;;;;;;0.50;0.30;;;;;;;20.02;99.04;100424.66;5014716;28;20819;-52
2021/06/23 06:08:10;;;;;;;0.40;0.20;;;;;;;19.74;99.02;100425.59;5013877;28;21020;-52
2021/06/23 06:10:36;;;;;;;0.40;0.30;;;;;;;20.22;99.14;100426.03;5014551;28;21070;-51
2021/06/23 06:13:04;;;;;;;0.40;0.20;;;;;;;20.61;96.35;100425.22;5012356;28;20986;-51
2021/06/23 06:15:32;;;;;;;0.40;0.20;;;;;;;21.12;95.09;100434.28;5010759;28;20452;-52
2021/06/23 06:18:08;;;;;;;0.40;0.20;;;;;;;21.47;93.98;100428.22;5005921;28;20436;-52
2021/06/23 06:20:35;;;;;;;0.40;0.20;;;;;;;21.64;90.50;100432.41;5011332;28;20442;-51
2021/06/23 06:23:03;;;;;;;0.50;0.30;;;;;;;21.74;89.72;100436.19;5014378;28;20429;-51
2021/06/23 06:25:31;;;;;;;0.50;0.30;;;;;;;22.12;88.93;100433.44;5014268;28;20544;-52
2021/06/23 06:27:58;;;;;;;2.40;2.30;;;;;;;22.23;88.30;100430.78;5012971;28;20477;-52
2021/06/23 06:30:26;;;;;;;0.40;0.30;;;;;;;22.29;88.13;100438.44;5013815;28;20477;-52
2021/06/23 06:32:54;;;;;;;0.50;0.20;;;;;;;22.06;88.03;100442.84;5014152;28;20546;-52
2021/06/23 06:35:23;;;;;;;0.50;0.40;;;;;;;22.40;85.01;100441.22;5008867;28;20890;-52
2021/06/23 06:37:50;;;;;;;0.43;0.20;;;;;;;21.40;88.73;100444.06;5003045;28;20469;-52
2021/06/23 06:40:17;;;;;;;0.50;0.20;;;;;;;21.28;90.51;100442.22;5006205;28;20491;-52
2021/06/23 06:42:44;;;;;;;0.40;0.20;;;;;;;21.13;91.13;100440.56;5007273;28;20423;-52
2021/06/23 06:45:11;;;;;;;0.50;0.37;;;;;;;20.88;92.32;100438.69;5014025;28;20938;-52
2021/06/23 06:47:37;;;;;;;0.50;0.20;;;;;;;20.99;92.89;100445.09;5012141;28;20464;-52
2021/06/23 06:50:05;;;;;;;1.37;1.37;;;;;;;20.79;93.30;100436.59;5012535;28;20480;-52
2021/06/23 06:52:32;;;;;;;0.43;0.20;;;;;;;21.00;92.56;100436.00;5013900;28;20490;-52
2021/06/23 06:54:58;;;;;;;0.40;0.30;;;;;;;20.90;94.07;100434.91;5010154;28;20481;-51
2021/06/23 06:57:25;;;;;;;0.47;0.20;;;;;;;21.33;91.72;100431.91;5013653;28;20452;-51
2021/06/23 06:59:52;;;;;;;0.47;0.20;;;;;;;21.82;89.30;100436.53;5013939;28;20485;-52
2021/06/23 07:02:18;;;;;;;0.40;0.20;;;;;;;21.59;89.19;100439.03;5012153;28;20875;-51
2021/06/23 07:04:45;;;;;;;0.50;0.20;;;;;;;21.83;89.86;100441.81;5013578;28;20451;-51
2021/06/23 07:07:12;;;;;;;0.40;0.20;;;;;;;22.07;86.51;100452.72;5013927;28;20446;-51
2021/06/23 07:09:38;;;;;;;0.50;0.20;;;;;;;21.50;89.24;100455.06;5002499;28;20467;-51
2021/06/23 07:12:06;;;;;;;0.50;0.20;;;;;;;21.25;91.90;100453.25;5012249;28;20977;-52
2021/06/23 07:14:32;;;;;;;0.60;0.30;;;;;;;21.87;89.21;100462.25;5013670;28;20429;-52
2021/06/23 07:16:59;;;;;;;6.80;1.37;;;;;;;21.66;90.67;100460.25;5013756;28;20487;-52
2021/06/23 07:19:26;;;;;;;0.47;0.20;;;;;;;21.69;90.14;100458.19;5012432;28;20451;-52
2021/06/23 07:21:53;;;;;;;0.50;0.23;;;;;;;22.29;86.88;100460.09;5013730;28;20942;-53
2021/06/23 07:24:20;;;;;;;1.03;0.50;;;;;;;22.09;88.45;100453.47;5006511;28;20468;-52
2021/06/23 07:26:52;;;;;;;0.50;0.30;;;;;;;22.51;86.77;100455.81;5013608;28;20452;-52
2021/06/23 07:29:19;;;;;;;1.50;1.07;;;;;;;22.39;87.32;100454.88;5006484;28;20432;-52
2021/06/23 07:36:30;;;;;;;1.40;1.40;;;;;;;22.24;87.67;100453.31;5013000;28;20495;-52
2021/06/23 07:37:06;;;;;;;0.50;0.30;;;;;;;22.29;87.17;100454.69;4980812;28;20469;-52
2021/06/23 07:39:35;;;;;;;0.60;0.50;;;;;;;21.78;89.31;100460.22;5006931;28;20448;-52
2021/06/23 07:42:04;;;;;;;0.40;0.20;;;;;;;21.91;88.31;100453.91;5003040;28;20484;-52
2021/06/23 07:44:57;;;;;;;0.50;0.30;;;;;;;21.07;90.66;100451.78;5010475;28;20823;-51
2021/06/23 07:47:24;;;;;;;0.50;0.20;;;;;;;21.35;91.79;100450.75;5011493;28;20472;-51
2021/06/23 07:49:51;;;;;;;0.50;0.20;;;;;;;21.45;92.84;100441.00;5012793;28;21004;-51
2021/06/23 08:10:57;;;;;;;1.67;0.77;;;;;;;20.93;93.14;100439.22;5012547;28;20518;-51
2021/06/23 08:13:24;;;;;;;0.40;0.20;;;;;;;21.22;92.63;100437.19;5012576;28;20459;-51
2021/06/23 08:15:51;;;;;;;0.60;0.60;;;;;;;21.34;92.58;100444.47;4983816;28;20431;-51
2021/06/23 08:18:21;;;;;;;0.43;0.23;;;;;;;21.57;91.43;100446.41;5006082;28;20449;-50
2021/06/23 08:20:51;;;;;;;0.60;0.50;;;;;;;21.80;89.14;100452.00;4996702;28;20530;-51
2021/06/23 08:23:18;;;;;;;0.50;0.20;;;;;;;21.12;91.08;100439.69;5001613;28;20449;-50
2021/06/23 08:25:45;;;;;;;0.47;0.30;;;;;;;21.57;90.65;100445.53;5012591;28;20448;-51
2021/06/23 08:28:11;;;;;;;0.40;0.20;;;;;;;22.10;88.93;100447.09;5013310;28;20972;-51
2021/06/23 08:30:38;;;;;;;0.50;0.30;;;;;;;22.32;87.36;100437.34;5012392;28;20455;-51
2021/06/23 08:33:05;;;;;;;0.67;0.67;;;;;;;22.12;87.89;100438.84;4996670;28;20526;-50
2021/06/23 08:35:32;;;;;;;0.50;0.27;;;;;;;22.38;87.22;100447.72;4999829;28;20449;-50
2021/06/23 08:37:59;;;;;;;0.90;0.60;;;;;;;22.91;87.10;100456.38;5012498;28;20431;-51
2021/06/23 08:40:26;;;;;;;0.40;0.20;;;;;;;23.10;84.80;100453.94;5003804;28;20444;-51
2021/06/23 08:42:53;;;;;;;0.50;0.40;;;;;;;22.85;84.53;100445.97;5008331;28;20423;-51
2021/06/23 08:45:20;;;;;;;0.50;0.30;;;;;;;22.48;85.95;100451.50;5012435;28;20427;-51
2021/06/23 08:47:49;;;;;;;0.50;0.20;;;;;;;22.84;84.45;100449.69;5001446;28;20475;-51
2021/06/23 08:50:19;;;;;;;0.50;0.30;;;;;;;22.97;83.73;100451.31;5012309;28;20463;-51
2021/06/23 08:52:46;;;;;;;0.50;0.20;;;;;;;22.81;83.64;100447.19;5012222;28;20448;-50
2021/06/23 08:55:18;;;;;;;0.50;0.20;;;;;;;23.15;82.25;100440.88;5012344;28;20419;-50
2021/06/23 08:57:47;;;;;;;0.50;0.20;;;;;;;23.20;83.52;100435.09;5008237;28;20431;-50
2021/06/23 09:00:15;;;;;;;0.50;0.20;;;;;;;23.43;80.65;100434.13;5003848;28;20473;-51
2021/06/23 09:02:44;;;;;;;0.50;0.20;;;;;;;23.64;80.03;100437.00;5005474;28;20469;-51
2021/06/23 09:05:13;;;;;;;0.60;0.50;;;;;;;23.98;77.54;100428.81;5010701;28;20924;-51
2021/06/23 09:07:46;;;;;;;0.50;0.30;;;;;;;24.08;77.94;100432.50;5012139;28;20808;-51
2021/06/23 09:10:18;;;;;;;0.63;0.63;;;;;;;24.12;78.60;100428.53;4987029;28;20467;-51
2021/06/23 09:13:00;;;;;;;0.50;0.40;;;;;;;24.79;77.15;100433.78;4987590;28;20534;-51
2021/06/23 09:15:39;;;;;;;0.50;0.20;;;;;;;25.03;74.13;100428.13;5012192;28;20459;-51
2021/06/23 09:18:14;;;;;;;0.50;0.27;;;;;;;24.91;75.90;100426.41;5008716;28;20872;-51
2021/06/23 09:20:41;;;;;;;0.50;0.30;;;;;;;25.08;75.47;100423.13;5012304;28;20922;-51
2021/06/23 09:23:09;;;;;;;0.50;0.20;;;;;;;24.77;76.26;100427.59;4987296;28;20482;-51
2021/06/23 09:25:37;;;;;;;0.50;0.20;;;;;;;24.44;77.16;100431.34;4979864;28;20457;-51
2021/06/23 09:28:05;;;;;;;0.50;0.30;;;;;;;24.67;75.93;100435.72;4979874;28;20509;-51
2021/06/23 09:30:50;;;;;;;0.50;0.30;;;;;;;24.11;77.89;100430.41;4973523;28;20456;-51
2021/06/23 09:33:25;;;;;;;3.03;0.70;;;;;;;24.22;77.63;100424.09;4996542;28;20495;-51
2021/06/23 09:36:00;;;;;;;0.50;0.30;;;;;;;24.44;77.99;100424.06;5013892;28;20480;-51
2021/06/23 09:38:47;;;;;;;0.50;0.30;;;;;;;24.08;77.92;100425.22;4975464;28;20444;-51
2021/06/23 09:41:28;;;;;;;0.50;0.23;;;;;;;24.07;77.36;100430.78;4993133;28;20480;-51
2021/06/23 09:44:06;;;;;;;0.50;0.20;;;;;;;24.12;77.71;100423.09;5015001;28;20468;-51
2021/06/23 09:46:39;;;;;;;0.70;0.70;;;;;;;23.97;77.61;100422.53;5013512;28;20434;-51
2021/06/23 09:49:07;;;;;;;0.50;0.30;;;;;;;24.05;77.14;100419.19;5014808;28;20468;-51
2021/06/23 09:51:58;;;;;;;0.50;0.27;;;;;;;24.28;76.87;100420.88;5012417;28;21023;-51
2021/06/23 09:54:31;;;;;;;0.50;0.20;;;;;;;24.69;73.77;100427.41;5006794;28;20473;-51
2021/06/23 09:57:13;;;;;;;0.50;0.30;;;;;;;24.74;73.67;100422.44;4999327;28;20962;-51
2021/06/23 09:59:42;;;;;;;0.50;0.23;;;;;;;25.22;74.84;100425.53;5015112;28;20560;-51
2021/06/23 10:02:27;;;;;;;0.50;0.27;;;;;;;25.07;73.58;100414.09;5014865;28;20423;-51
2021/06/23 10:04:55;;;;;;;0.50;0.30;;;;;;;24.58;72.91;100416.59;5014718;28;20451;-51
2021/06/23 10:07:45;;;;;;;0.50;0.30;;;;;;;25.49;71.33;100422.22;5002726;28;20644;-51
2021/06/23 10:10:16;;;;;;;0.50;0.30;;;;;;;24.75;72.97;100413.28;5013663;28;20476;-54
2021/06/23 10:12:44;;;;;;;0.50;0.30;;;;;;;25.12;72.82;100405.56;4991192;28;20498;-51
2021/06/23 10:15:13;;;;;;;0.50;0.30;;;;;;;25.37;73.01;100407.00;5006163;28;20472;-54
2021/06/23 10:17:39;;;;;;;0.50;0.30;;;;;;;25.04;71.40;100408.06;5003556;28;20822;-51
2021/06/23 10:20:07;;;;;;;0.50;0.30;;;;;;;24.52;73.64;100398.94;5014476;28;20527;-51
2021/06/23 10:22:35;;;;;;;0.50;0.30;;;;;;;24.70;73.05;100407.38;5014558;28;20875;-51
2021/06/23 10:25:08;;;;;;;0.50;0.20;;;;;;;24.12;74.73;100402.28;5014609;28;20826;-50
2021/06/23 10:27:39;;;;;;;0.50;0.30;;;;;;;24.46;74.18;100407.63;5014535;28;20445;-51
2021/06/23 10:30:07;;;;;;;0.50;0.30;;;;;;;24.81;74.96;100407.34;5009437;28;20927;-51
2021/06/23 10:32:33;;;;;;;0.50;0.40;;;;;;;24.98;73.07;100400.44;5005719;28;20453;-51
2021/06/23 10:35:00;;;;;;;0.50;0.40;;;;;;;25.17;72.54;100402.44;4988888;28;20915;-51
2021/06/23 10:37:28;;;;;;;0.50;0.30;;;;;;;25.71;70.45;100407.59;4996302;28;20448;-52
2021/06/23 10:39:55;;;;;;;0.50;0.30;;;;;;;25.83;69.44;100406.47;5009267;28;20918;-52
2021/06/23 10:42:24;;;;;;;0.50;0.20;;;;;;;26.29;67.63;100400.38;5006220;28;20827;-52
2021/06/23 10:44:56;;;;;;;0.50;0.30;;;;;;;26.43;66.36;100403.72;5014312;28;20448;-51
2021/06/23 10:47:31;;;;;;;0.50;0.30;;;;;;;26.49;65.63;100401.31;5012319;28;20492;-51
2021/06/23 10:49:57;;;;;;;0.50;0.30;;;;;;;26.43;66.71;100396.41;5013868;28;20511;-52
2021/06/23 10:52:26;;;;;;;7.90;1.13;;;;;;;26.70;65.17;100403.00;5008109;28;20940;-52
2021/06/23 10:54:57;;;;;;;0.50;0.30;;;;;;;26.61;66.24;100393.84;5013990;28;20496;-52
2021/06/23 10:57:26;;;;;;;0.50;0.30;;;;;;;25.97;68.00;100397.06;5013911;28;20448;-51
2021/06/23 10:59:55;;;;;;;0.50;0.30;;;;;;;26.10;68.10;100389.47;5013310;28;20611;-52
2021/06/23 11:02:37;;;;;;;0.50;0.30;;;;;;;25.09;68.76;100394.94;5013162;28;20448;-52
2021/06/23 11:05:13;;;;;;;0.50;0.30;;;;;;;24.40;71.86;100386.41;5013311;28;20484;-51
2021/06/23 11:07:43;;;;;;;0.50;0.30;;;;;;;24.33;72.91;100391.47;4973534;28;20445;-51
2021/06/23 11:10:16;;;;;;;0.50;0.30;;;;;;;24.79;72.81;100385.69;5002210;28;20469;-51
2021/06/23 11:12:42;;;;;;;0.50;0.30;;;;;;;25.36;71.29;100380.78;5002492;28;20469;-52
2021/06/23 11:15:11;;;;;;;0.50;0.30;;;;;;;24.83;70.83;100374.56;5012978;28;20631;-52
2021/06/23 11:17:38;;;;;;;0.50;0.30;;;;;;;25.20;69.79;100372.22;5004821;28;20458;-51
2021/06/23 11:20:27;;;;;;;0.50;0.30;;;;;;;26.07;68.06;100378.00;5004928;28;20476;-52
2021/06/23 11:22:56;;;;;;;0.50;0.30;;;;;;;26.02;67.49;100377.53;4998178;28;20449;-52
2021/06/23 11:25:33;;;;;;;4.50;1.00;;;;;;;26.13;67.77;100380.16;5013317;28;20452;-52
2021/06/23 11:28:10;;;;;;;0.50;0.30;;;;;;;26.76;67.58;100378.75;5013147;28;20942;-52
2021/06/23 11:30:52;;;;;;;0.50;0.50;;;;;;;26.89;67.18;100381.19;5004517;28;20485;-51
2021/06/23 11:33:27;;;;;;;0.60;0.40;;;;;;;26.54;68.27;100377.19;5010514;28;20510;-51
2021/06/23 11:36:04;;;;;;;0.50;0.30;;;;;;;25.81;68.03;100378.53;5013292;28;20444;-51
2021/06/23 11:38:31;;;;;;;0.50;0.30;;;;;;;26.43;67.57;100373.75;4999294;28;20940;-52
2021/06/23 11:40:58;;;;;;;0.50;0.40;;;;;;;26.55;66.42;100375.31;4987109;28;20481;-51
2021/06/23 11:43:26;;;;;;;1.37;1.37;;;;;;;26.69;64.88;100385.78;4987950;28;20453;-52
2021/06/23 11:45:54;;;;;;;0.50;0.30;;;;;;;26.46;65.74;100384.38;5007090;28;20468;-52
2021/06/23 11:48:29;;;;;;;0.50;0.30;;;;;;;26.42;67.19;100385.66;5011350;28;20460;-53
2021/06/23 11:50:56;;;;;;;0.50;0.30;;;;;;;26.36;66.69;100375.34;5003980;28;20484;-53
2021/06/23 11:53:23;;;;;;;2.20;0.97;;;;;;;26.47;66.50;100380.66;4991081;28;20464;-53